createdAt,value
2023-04-08T00:02:31.591Z,7.95
2023-04-08T00:05:16.266Z,7.93
2023-04-08T00:08:01.193Z,7.90
2023-04-08T00:10:37.335Z,7.88
2023-04-08T00:13:23.902Z,7.85
2023-04-08T00:16:07.042Z,7.82
2023-04-08T00:18:43.930Z,7.77
2023-04-08T00:21:25.601Z,7.73
2023-04-08T00:24:01.559Z,7.70
2023-04-08T00:26:37.911Z,7.68
2023-04-08T00:29:25.941Z,7.64
2023-04-08T00:32:05.505Z,7.60
2023-04-08T00:34:44.979Z,7.54
2023-04-08T00:37:29.097Z,7.49
2023-04-08T00:40:05.504Z,7.44
2023-04-08T00:42:47.133Z,7.40
2023-04-08T00:45:47.189Z,7.37
2023-04-08T00:48:31.327Z,7.31
2023-04-08T00:51:10.255Z,7.26
2023-04-08T00:53:46.010Z,7.22
2023-04-08T00:56:30.805Z,7.18
2023-04-08T00:59:08.139Z,7.15
2023-04-08T01:01:57.458Z,7.11
2023-04-08T01:04:47.119Z,7.07
2023-04-08T01:07:33.807Z,7.00
2023-04-08T01:10:19.511Z,6.97
2023-04-08T01:13:00.276Z,6.93
2023-04-08T01:15:47.789Z,6.89
2023-04-08T01:18:30.779Z,6.85
2023-04-08T01:21:08.081Z,6.83
2023-04-08T01:24:02.839Z,6.80
2023-04-08T01:26:42.794Z,6.75
2023-04-08T01:29:24.617Z,6.69
2023-04-08T01:32:18.414Z,6.66
2023-04-08T01:34:55.137Z,6.64
2023-04-08T01:37:33.140Z,6.62
2023-04-08T01:40:34.323Z,6.60
2023-04-08T01:43:18.011Z,6.55
2023-04-08T01:45:58.863Z,6.50
2023-04-08T01:48:41.770Z,6.47
2023-04-08T01:51:21.900Z,6.46
2023-04-08T01:54:02.224Z,6.44
2023-04-08T01:56:46.199Z,6.41
2023-04-08T01:59:33.632Z,6.36
2023-04-08T02:02:16.624Z,6.33
2023-04-08T02:04:58.458Z,6.29
2023-04-08T02:07:36.972Z,6.25
2023-04-08T02:10:17.326Z,6.23
2023-04-08T02:12:57.574Z,6.20
2023-04-08T02:15:40.982Z,6.17
2023-04-08T02:18:25.482Z,6.14
2023-04-08T02:21:17.887Z,6.10
2023-04-08T02:23:53.809Z,6.08
2023-04-08T02:26:32.847Z,6.07
2023-04-08T02:29:15.240Z,6.06
2023-04-08T02:32:09.076Z,6.05
2023-04-08T02:34:49.789Z,6.04
2023-04-08T02:37:42.266Z,6.02
2023-04-08T02:40:32.944Z,5.98
2023-04-08T02:43:15.237Z,5.93
2023-04-08T02:46:04.189Z,5.90
2023-04-08T02:48:46.360Z,5.88
2023-04-08T02:51:23.912Z,5.88
2023-04-08T02:54:08.483Z,5.88
2023-04-08T02:56:47.513Z,5.85
2023-04-08T02:59:22.804Z,5.85
2023-04-08T03:02:06.461Z,5.83
2023-04-08T03:04:47.216Z,5.79
2023-04-08T03:07:32.793Z,5.79
2023-04-08T03:10:27.138Z,5.76
2023-04-08T03:13:08.345Z,5.71
2023-04-08T03:15:48.890Z,5.69
2023-04-08T03:18:34.896Z,5.70
2023-04-08T03:21:16.597Z,5.68
2023-04-08T03:23:57.806Z,5.65
2023-04-08T03:26:41.373Z,5.64
2023-04-08T03:29:28.933Z,5.63
2023-04-08T03:32:08.460Z,5.62
2023-04-08T03:34:53.248Z,5.63
2023-04-08T03:37:40.481Z,5.64
2023-04-08T03:40:26.222Z,5.67
2023-04-08T03:43:06.482Z,5.70
2023-04-08T03:45:44.287Z,5.72
2023-04-08T03:48:25.283Z,5.71
2023-04-08T03:51:03.704Z,5.71
2023-04-08T03:53:38.469Z,5.71
2023-04-08T03:56:15.402Z,5.74
2023-04-08T03:58:52.923Z,5.76
2023-04-08T04:01:33.517Z,5.78
2023-04-08T04:04:16.742Z,5.81
2023-04-08T04:06:59.399Z,5.81
2023-04-08T04:09:34.847Z,5.82
2023-04-08T04:12:11.501Z,5.84
2023-04-08T04:14:48.579Z,5.84
2023-04-08T04:17:30.232Z,5.86
2023-04-08T04:20:15.691Z,5.85
2023-04-08T04:22:51.497Z,5.86
2023-04-08T04:25:27.578Z,5.86
2023-04-08T04:28:05.165Z,5.88
2023-04-08T04:30:42.940Z,5.91
2023-04-08T04:33:20.194Z,5.91
2023-04-08T04:35:56.350Z,5.90
2023-04-08T04:38:31.315Z,5.92
2023-04-08T04:41:10.078Z,5.91
2023-04-08T04:43:46.803Z,5.89
2023-04-08T04:46:21.983Z,5.86
2023-04-08T04:48:59.104Z,5.79
2023-04-08T04:51:37.110Z,5.72
2023-04-08T04:54:16.470Z,5.72
2023-04-08T04:56:54.484Z,5.71
2023-04-08T04:59:30.995Z,5.70
2023-04-08T05:02:07.972Z,5.66
2023-04-08T05:04:43.069Z,5.64
2023-04-08T05:07:23.260Z,5.62
2023-04-08T05:10:02.250Z,5.61
2023-04-08T05:12:39.713Z,5.58
2023-04-08T05:15:20.950Z,5.57
2023-04-08T05:17:59.015Z,5.56
2023-04-08T05:20:34.586Z,5.56
2023-04-08T05:23:28.831Z,5.49
2023-04-08T05:26:08.930Z,5.45
2023-04-08T05:28:42.951Z,5.43
2023-04-08T05:31:21.566Z,5.44
2023-04-08T05:34:00.183Z,5.45
2023-04-08T05:36:37.941Z,5.48
2023-04-08T05:39:19.196Z,5.48
2023-04-08T05:41:55.539Z,5.49
2023-04-08T05:44:39.441Z,5.50
2023-04-08T05:47:16.394Z,5.51
2023-04-08T05:49:53.408Z,5.51
2023-04-08T05:52:29.603Z,5.53
2023-04-08T05:55:05.682Z,5.54
2023-04-08T05:57:46.072Z,5.58
2023-04-08T06:00:23.527Z,5.60
2023-04-08T06:03:04.283Z,5.62
2023-04-08T06:05:42.714Z,5.65
2023-04-08T06:08:21.425Z,5.68
2023-04-08T06:10:58.458Z,5.71
2023-04-08T06:13:36.593Z,5.73
2023-04-08T06:16:22.522Z,5.76
2023-04-08T06:19:02.198Z,5.78
2023-04-08T06:21:40.273Z,5.81
2023-04-08T06:24:17.832Z,5.81
2023-04-08T06:26:56.531Z,5.85
2023-04-08T06:29:36.004Z,5.91
2023-04-08T06:32:18.484Z,5.97
2023-04-08T06:34:55.685Z,6.00
2023-04-08T06:37:32.024Z,6.05
2023-04-08T06:40:12.605Z,6.10
2023-04-08T06:42:52.291Z,6.15
2023-04-08T06:45:59.577Z,6.16
2023-04-08T06:48:38.026Z,6.19
2023-04-08T06:51:30.334Z,6.26
2023-04-08T06:54:06.938Z,6.33
2023-04-08T06:56:51.429Z,6.40
2023-04-08T06:59:29.479Z,6.47
2023-04-08T07:02:04.757Z,6.54
2023-04-08T07:04:39.759Z,6.65
2023-04-08T07:07:15.590Z,6.74
2023-04-08T07:10:11.040Z,6.79
2023-04-08T07:12:45.783Z,6.85
2023-04-08T07:15:22.959Z,6.87
2023-04-08T07:18:01.124Z,6.90
2023-04-08T07:20:40.193Z,7.04
2023-04-08T07:23:18.285Z,7.16
2023-04-08T07:25:56.124Z,7.23
2023-04-08T07:28:35.539Z,7.32
2023-04-08T07:31:20.751Z,7.43
2023-04-08T07:34:06.706Z,7.51
2023-04-08T07:36:44.162Z,7.60
2023-04-08T07:39:18.756Z,7.63
2023-04-08T07:42:15.164Z,7.66
2023-04-08T07:44:53.215Z,7.70
2023-04-08T07:47:31.236Z,7.73
2023-04-08T07:50:15.482Z,7.79
2023-04-08T07:52:56.958Z,7.87
2023-04-08T07:55:35.685Z,7.94
2023-04-08T07:58:13.653Z,8.02
2023-04-08T08:00:52.122Z,8.10
2023-04-08T08:03:29.445Z,8.21
2023-04-08T08:06:10.272Z,8.25
2023-04-08T08:08:46.645Z,8.28
2023-04-08T08:11:28.715Z,8.33
2023-04-08T08:14:05.333Z,8.38
2023-04-08T08:16:45.134Z,8.41
2023-04-08T08:19:20.544Z,8.41
2023-04-08T08:21:56.064Z,8.38
2023-04-08T08:24:35.178Z,8.21
2023-04-08T08:27:11.387Z,8.12
2023-04-08T08:29:46.755Z,8.16
2023-04-08T08:32:23.667Z,8.22
2023-04-08T08:34:59.392Z,8.26
2023-04-08T08:37:35.439Z,8.27
2023-04-08T08:40:16.113Z,8.24
2023-04-08T08:42:58.966Z,8.24
2023-04-08T08:45:35.521Z,8.25
2023-04-08T08:48:10.879Z,8.28
2023-04-08T08:50:46.526Z,8.29
2023-04-08T08:53:25.338Z,8.30
2023-04-08T08:56:17.679Z,8.29
2023-04-08T08:58:54.312Z,8.28
2023-04-08T09:01:41.940Z,8.29
2023-04-08T09:04:21.728Z,8.30
2023-04-08T09:07:15.061Z,8.28
2023-04-08T09:10:02.288Z,8.30
2023-04-08T09:12:59.197Z,8.36
2023-04-08T09:15:39.502Z,8.39
2023-04-08T09:18:26.948Z,8.40
2023-04-08T09:21:04.232Z,8.40
2023-04-08T09:23:49.081Z,8.47
2023-04-08T09:26:28.976Z,8.53
2023-04-08T09:29:24.220Z,8.60
2023-04-08T09:32:03.996Z,8.68
2023-04-08T09:34:40.866Z,8.73
2023-04-08T09:37:19.716Z,8.73
2023-04-08T09:39:56.270Z,8.78
2023-04-08T09:42:32.696Z,8.80
2023-04-08T09:45:15.552Z,8.81
2023-04-08T09:48:16.345Z,8.90
2023-04-08T09:51:00.072Z,8.99
2023-04-08T09:53:40.814Z,9.05
2023-04-08T09:56:19.075Z,9.10
2023-04-08T09:59:02.541Z,9.16
2023-04-08T10:01:47.254Z,9.16
2023-04-08T10:04:27.994Z,9.24
2023-04-08T10:07:12.427Z,9.28
2023-04-08T10:09:50.110Z,9.36
2023-04-08T10:12:26.510Z,9.40
2023-04-08T10:15:29.440Z,9.43
2023-04-08T10:18:38.476Z,9.38
2023-04-08T10:21:38.292Z,9.39
2023-04-08T10:24:15.045Z,9.46
2023-04-08T10:26:51.977Z,9.51
2023-04-08T10:29:41.881Z,9.51
2023-04-08T10:32:32.032Z,9.57
2023-04-08T10:35:07.724Z,9.68
2023-04-08T10:37:52.423Z,9.75
2023-04-08T10:40:29.191Z,9.83
2023-04-08T10:43:06.899Z,9.96
2023-04-08T10:45:41.523Z,10.05
2023-04-08T10:48:31.494Z,10.11
2023-04-08T10:51:09.602Z,10.19
2023-04-08T10:53:45.323Z,10.25
2023-04-08T10:56:25.499Z,10.33
2023-04-08T10:59:04.653Z,10.35
2023-04-08T11:01:49.461Z,10.39
2023-04-08T11:04:25.792Z,10.46
2023-04-08T11:07:03.014Z,10.51
2023-04-08T11:09:44.637Z,10.59
2023-04-08T11:12:20.825Z,10.69
2023-04-08T11:14:58.539Z,10.75
2023-04-08T11:17:36.926Z,10.80
2023-04-08T11:20:19.972Z,10.86
2023-04-08T11:22:58.390Z,10.92
2023-04-08T11:25:33.082Z,10.96
2023-04-08T11:28:10.365Z,11.02
2023-04-08T11:30:48.601Z,11.07
2023-04-08T11:33:30.328Z,11.10
2023-04-08T11:36:09.517Z,11.13
2023-04-08T11:38:49.981Z,11.10
2023-04-08T11:41:27.842Z,11.16
2023-04-08T11:44:03.044Z,11.23
2023-04-08T11:46:39.794Z,11.29
2023-04-08T11:49:19.593Z,11.37
2023-04-08T11:52:10.173Z,11.44
2023-04-08T11:54:47.008Z,11.48
2023-04-08T11:57:33.793Z,11.52
2023-04-08T12:00:12.612Z,11.53
2023-04-08T12:02:56.060Z,11.55
2023-04-08T12:05:37.241Z,11.56
2023-04-08T12:08:14.007Z,11.62
2023-04-08T12:11:01.543Z,11.67
2023-04-08T12:13:45.898Z,11.67
2023-04-08T12:16:21.930Z,11.74
2023-04-08T12:18:58.552Z,11.84
2023-04-08T12:21:38.859Z,11.92
2023-04-08T12:24:12.112Z,12.00
2023-04-08T12:26:49.855Z,12.07
2023-04-08T12:29:30.990Z,12.10
2023-04-08T12:32:06.304Z,12.15
2023-04-08T12:34:44.142Z,12.19
2023-04-08T12:37:18.532Z,12.26
2023-04-08T12:39:53.443Z,12.29
2023-04-08T12:42:28.789Z,12.30
2023-04-08T12:45:04.188Z,12.35
2023-04-08T12:47:38.697Z,12.39
2023-04-08T12:50:20.562Z,12.45
2023-04-08T12:52:57.637Z,12.51
2023-04-08T12:55:33.163Z,12.53
2023-04-08T12:58:09.779Z,12.56
2023-04-08T13:00:47.410Z,12.61
2023-04-08T13:03:27.833Z,12.62
2023-04-08T13:06:03.475Z,12.66
2023-04-08T13:08:37.816Z,12.72
2023-04-08T13:11:16.176Z,12.79
2023-04-08T13:13:51.318Z,12.82
2023-04-08T13:16:29.661Z,12.87
2023-04-08T13:19:07.658Z,12.91
2023-04-08T13:21:44.986Z,12.93
2023-04-08T13:24:20.122Z,12.92
2023-04-08T13:26:57.839Z,12.96
2023-04-08T13:29:32.534Z,13.01
2023-04-08T13:32:08.274Z,12.99
2023-04-08T13:34:44.804Z,12.96
2023-04-08T13:37:21.113Z,12.95
2023-04-08T13:39:59.375Z,12.96
2023-04-08T13:42:36.764Z,12.93
2023-04-08T13:45:13.072Z,12.91
2023-04-08T13:47:49.893Z,12.88
2023-04-08T13:50:28.584Z,12.83
2023-04-08T13:53:05.911Z,12.85
2023-04-08T13:55:41.063Z,12.84
2023-04-08T13:58:23.786Z,12.84
2023-04-08T14:01:00.398Z,12.88
2023-04-08T14:03:37.514Z,12.90
2023-04-08T14:06:16.451Z,12.96
2023-04-08T14:08:54.561Z,12.99
2023-04-08T14:11:39.171Z,13.00
2023-04-08T14:14:16.821Z,13.02
2023-04-08T14:16:51.747Z,13.06
2023-04-08T14:19:27.629Z,13.09
2023-04-08T14:22:04.194Z,13.07
2023-04-08T14:24:40.510Z,13.11
2023-04-08T14:27:18.177Z,13.14
2023-04-08T14:29:57.122Z,13.17
2023-04-08T14:32:35.964Z,13.19
2023-04-08T14:35:12.773Z,13.19
2023-04-08T14:37:49.929Z,13.21
2023-04-08T14:40:26.069Z,13.23
2023-04-08T14:43:02.272Z,13.23
2023-04-08T14:45:46.094Z,13.22
2023-04-08T14:48:21.386Z,13.18
2023-04-08T14:50:58.220Z,13.14
2023-04-08T14:53:41.295Z,13.15
2023-04-08T14:56:17.076Z,13.14
2023-04-08T14:58:55.655Z,13.13
2023-04-08T15:01:32.534Z,13.13
2023-04-08T15:04:10.242Z,13.13
2023-04-08T15:06:46.304Z,13.11
2023-04-08T15:09:22.949Z,13.05
2023-04-08T15:11:58.924Z,13.00
2023-04-08T15:14:35.337Z,12.99
2023-04-08T15:17:11.248Z,13.01
2023-04-08T15:19:48.969Z,13.05
2023-04-08T15:22:27.452Z,13.06
2023-04-08T15:25:06.562Z,13.07
2023-04-08T15:27:42.343Z,13.10
2023-04-08T15:30:25.546Z,13.13
2023-04-08T15:33:01.337Z,13.14
2023-04-08T15:35:40.498Z,13.20
2023-04-08T15:38:17.170Z,13.22
2023-04-08T15:40:57.284Z,13.23
2023-04-08T15:43:33.168Z,13.24
2023-04-08T15:46:26.416Z,13.24
2023-04-08T15:49:03.810Z,13.22
2023-04-08T15:51:39.002Z,13.20
2023-04-08T15:54:15.756Z,13.19
2023-04-08T15:56:53.260Z,13.19
2023-04-08T15:59:35.549Z,13.19
2023-04-08T16:02:13.504Z,13.17
2023-04-08T16:04:47.797Z,13.15
2023-04-08T16:07:22.839Z,13.14
2023-04-08T16:09:59.640Z,13.09
2023-04-08T16:12:41.259Z,13.02
2023-04-08T16:15:19.037Z,12.98
2023-04-08T16:17:59.795Z,12.96
2023-04-08T16:20:33.022Z,12.92
2023-04-08T16:23:10.158Z,12.93
2023-04-08T16:25:45.545Z,12.96
2023-04-08T16:28:23.514Z,12.97
2023-04-08T16:30:59.390Z,13.01
2023-04-08T16:33:38.080Z,13.02
2023-04-08T16:36:15.382Z,13.00
2023-04-08T16:38:56.023Z,13.00
2023-04-08T16:41:34.929Z,12.98
2023-04-08T16:44:12.864Z,12.99
2023-04-08T16:46:52.738Z,12.98
2023-04-08T16:49:30.988Z,12.94
2023-04-08T16:52:20.350Z,12.92
2023-04-08T16:54:57.790Z,12.91
2023-04-08T16:57:36.151Z,12.86
2023-04-08T17:00:21.246Z,12.79
2023-04-08T17:02:59.572Z,12.75
2023-04-08T17:05:36.723Z,12.72
2023-04-08T17:08:20.518Z,12.70
2023-04-08T17:11:06.937Z,12.61
2023-04-08T17:13:44.880Z,12.53
2023-04-08T17:16:21.522Z,12.45
2023-04-08T17:18:57.767Z,12.38
2023-04-08T17:21:36.472Z,12.32
2023-04-08T17:24:12.983Z,12.30
2023-04-08T17:26:50.682Z,12.25
2023-04-08T17:29:28.343Z,12.17
2023-04-08T17:32:04.427Z,12.14
2023-04-08T17:34:40.957Z,12.10
2023-04-08T17:37:16.723Z,12.04
2023-04-08T17:39:55.782Z,11.96
2023-04-08T17:42:39.480Z,11.88
2023-04-08T17:45:17.269Z,11.83
2023-04-08T17:47:53.712Z,11.80
2023-04-08T17:50:29.544Z,11.75
2023-04-08T17:53:06.127Z,11.71
2023-04-08T17:55:41.977Z,11.67
2023-04-08T17:58:19.346Z,11.57
2023-04-08T18:00:56.643Z,11.49
2023-04-08T18:03:32.909Z,11.39
2023-04-08T18:06:11.281Z,11.34
2023-04-08T18:08:47.938Z,11.27
2023-04-08T18:11:27.489Z,11.16
2023-04-08T18:14:05.021Z,11.01
2023-04-08T18:16:40.356Z,10.88
2023-04-08T18:19:19.841Z,10.82
2023-04-08T18:22:02.796Z,10.80
2023-04-08T18:24:38.428Z,10.79
2023-04-08T18:27:17.085Z,10.75
2023-04-08T18:29:55.322Z,10.76
2023-04-08T18:32:32.272Z,10.74
2023-04-08T18:35:08.112Z,10.70
2023-04-08T18:37:45.805Z,10.65
2023-04-08T18:40:21.708Z,10.59
2023-04-08T18:43:02.991Z,10.53
2023-04-08T18:45:54.212Z,10.48
2023-04-08T18:48:31.246Z,10.45
2023-04-08T18:51:07.462Z,10.42
2023-04-08T18:53:42.890Z,10.38
2023-04-08T18:56:22.215Z,10.34
2023-04-08T18:59:02.318Z,10.29
2023-04-08T19:01:41.656Z,10.23
2023-04-08T19:04:23.111Z,10.16
2023-04-08T19:07:00.947Z,10.09
2023-04-08T19:09:41.928Z,10.05
2023-04-08T19:12:19.702Z,10.00
2023-04-08T19:14:58.665Z,9.94
2023-04-08T19:17:34.720Z,9.89
2023-04-08T19:20:23.092Z,9.84
2023-04-08T19:22:58.450Z,9.78
2023-04-08T19:25:34.433Z,9.74
2023-04-08T19:28:11.954Z,9.68
2023-04-08T19:30:50.896Z,9.62
2023-04-08T19:33:30.812Z,9.52
2023-04-08T19:36:06.052Z,9.40
2023-04-08T19:38:41.197Z,9.31
2023-04-08T19:41:19.174Z,9.26
2023-04-08T19:43:54.653Z,9.20
2023-04-08T19:46:33.457Z,9.13
2023-04-08T19:49:11.680Z,9.07
2023-04-08T19:51:48.960Z,9.02
2023-04-08T19:54:25.524Z,8.97
2023-04-08T19:57:01.646Z,8.90
2023-04-08T19:59:37.158Z,8.83
2023-04-08T20:02:15.248Z,8.75
2023-04-08T20:04:52.422Z,8.70
2023-04-08T20:07:29.020Z,8.65
2023-04-08T20:10:05.130Z,8.57
2023-04-08T20:12:50.441Z,8.49
2023-04-08T20:15:34.064Z,8.45
2023-04-08T20:18:09.414Z,8.40
2023-04-08T20:20:46.570Z,8.35
2023-04-08T20:23:25.606Z,8.31
2023-04-08T20:26:00.729Z,8.28
2023-04-08T20:28:36.280Z,8.25
2023-04-08T20:31:14.712Z,8.22
2023-04-08T20:33:51.905Z,8.14
2023-04-08T20:36:30.046Z,7.98
2023-04-08T20:39:16.099Z,7.89
2023-04-08T20:41:54.974Z,7.85
2023-04-08T20:44:32.846Z,7.82
2023-04-08T20:47:07.983Z,7.80
2023-04-08T20:49:44.864Z,7.78
2023-04-08T20:52:21.553Z,7.76
2023-04-08T20:55:00.185Z,7.69
2023-04-08T20:57:36.657Z,7.66
2023-04-08T21:00:16.305Z,7.66
2023-04-08T21:02:52.184Z,7.68
2023-04-08T21:05:30.042Z,7.69
2023-04-08T21:08:11.142Z,7.68
2023-04-08T21:10:46.911Z,7.68
2023-04-08T21:13:21.404Z,7.70
2023-04-08T21:15:57.895Z,7.69
2023-04-08T21:18:33.926Z,7.68
2023-04-08T21:21:12.329Z,7.63
2023-04-08T21:23:50.697Z,7.58
2023-04-08T21:26:27.163Z,7.56
2023-04-08T21:29:01.893Z,7.54
2023-04-08T21:31:37.553Z,7.50
2023-04-08T21:34:17.629Z,7.48
2023-04-08T21:36:54.316Z,7.47
2023-04-08T21:39:29.172Z,7.52
2023-04-08T21:42:09.777Z,7.53
2023-04-08T21:44:46.136Z,7.51
2023-04-08T21:47:26.278Z,7.52
2023-04-08T21:50:03.446Z,7.52
2023-04-08T21:52:41.571Z,7.51
2023-04-08T21:55:20.406Z,7.52
2023-04-08T21:57:55.673Z,7.54
2023-04-08T22:00:31.015Z,7.53
2023-04-08T22:03:11.966Z,7.52
2023-04-08T22:05:49.467Z,7.49
2023-04-08T22:08:25.889Z,7.47
2023-04-08T22:11:02.045Z,7.46
2023-04-08T22:13:39.077Z,7.42
2023-04-08T22:16:16.757Z,7.42
2023-04-08T22:18:52.236Z,7.41
2023-04-08T22:21:28.159Z,7.40
2023-04-08T22:24:06.446Z,7.41
2023-04-08T22:26:46.826Z,7.34
2023-04-08T22:29:24.627Z,7.29
2023-04-08T22:32:00.856Z,7.28
2023-04-08T22:34:37.342Z,7.26
2023-04-08T22:37:14.093Z,7.23
2023-04-08T22:39:48.953Z,7.19
2023-04-08T22:42:24.865Z,7.21
2023-04-08T22:45:02.023Z,7.26
2023-04-08T22:47:39.237Z,7.28
2023-04-08T22:50:17.182Z,7.27
2023-04-08T22:52:51.992Z,7.28
2023-04-08T22:55:31.353Z,7.26
2023-04-08T22:58:06.583Z,7.23
2023-04-08T23:00:42.416Z,7.22
2023-04-08T23:03:20.001Z,7.25
2023-04-08T23:05:59.062Z,7.24
2023-04-08T23:08:36.943Z,7.21
2023-04-08T23:11:17.283Z,7.23
2023-04-08T23:13:52.984Z,7.21
2023-04-08T23:16:27.977Z,7.23
2023-04-08T23:19:03.773Z,7.22
2023-04-08T23:21:42.110Z,7.21
2023-04-08T23:24:19.209Z,7.18
2023-04-08T23:26:54.614Z,7.23
2023-04-08T23:29:32.950Z,7.29
2023-04-08T23:32:08.022Z,7.29
2023-04-08T23:34:45.276Z,7.30
2023-04-08T23:37:25.732Z,7.28
2023-04-08T23:40:03.156Z,7.29
2023-04-08T23:42:39.238Z,7.26
2023-04-08T23:45:17.086Z,7.27
2023-04-08T23:47:53.529Z,7.29
2023-04-08T23:50:29.732Z,7.32
2023-04-08T23:53:07.322Z,7.32
2023-04-08T23:55:44.571Z,7.31
2023-04-08T23:58:18.812Z,7.30
